Etusivu
METAR-TAF:

METAR-TAF

Lentoasemat :

Norne Fpso, Norja

Öljynporauslautta

Leveyspiiri: 66-01-48N, Pituuspiiri: 008-04-48E, korkeus merenpinnasta: 10 m

Tämänhetkinen sää

Tämä raportti tehtiin 18 tuntia ja 29 minuuttia sitten, kello 14.50 UTC
Tuuli 16 kn etelästä/kaakosta
Lämpötila 0°C
Kosteus 74%
Ilmanpaine 1022 hPa
Näkyvyys 10 km tai enemmän
Hajanaisia pilviä 2500 ft:n korkeudessa

METAR: ENNE 201450Z 15016KT 9999 SCT025 00/M04 Q1022 W///S4

Aika: 10:19 (09:19 UTC)

Sääennuste

Tämä raportti tehtiin 19 tuntia ja 19 minuuttia sitten, kello 14.00 UTC
Ennuste voimassa 20. päivästä klo 15 UTC - 20. päivään klo 18 UTC
Tuuli 15 kn kaakosta
Näkyvyys 10 km tai enemmän
Hajonneita pilviä 2500 ft:n korkeudessa

TAF: ENNE 201400Z 2015/2018 14015KT 9999 BKN025

Säähavainnot ja -ennusteet yli 4000 lentoasemalta (METAR- ja TAF-raportit).

Käytössä olevat sääasemat on merkitty karttaan keltaisilla ja punaisilla pisteillä.

Aseta hiiri pisteen päälle nähdäksesi sääaseman nimen.

Klikkaa sitten nähdäksesi säähavainnot ja -ennusteet.

Kartan vaihtaminen: klikkaa mustalla rastilla varustettuja vihreitä pisteitä, niin voit zoomata sisään; viivalla varustettua vihreää pistettä, niin voit zoomata ulos tai vihreitä nuolia, niin pääset viereisille kartoille.


METAR-TAF: